createdAt,value
2022-11-18T00:01:37.932Z,1.70
2022-11-18T00:04:08.359Z,1.66
2022-11-18T00:06:38.862Z,1.64
2022-11-18T00:09:11.506Z,1.66
2022-11-18T00:11:59.966Z,1.66
2022-11-18T00:14:30.385Z,1.74
2022-11-18T00:17:06.202Z,1.76
2022-11-18T00:19:39.217Z,1.67
2022-11-18T00:22:12.763Z,1.62
2022-11-18T00:24:44.901Z,1.58
2022-11-18T00:27:15.659Z,1.65
2022-11-18T00:29:47.584Z,1.62
2022-11-18T00:32:19.628Z,1.60
2022-11-18T00:34:50.043Z,1.68
2022-11-18T00:37:20.782Z,1.66
2022-11-18T00:39:51.125Z,1.57
2022-11-18T00:42:39.423Z,1.61
2022-11-18T00:45:12.605Z,1.58
2022-11-18T00:47:43.071Z,1.62
2022-11-18T00:50:14.939Z,1.61
2022-11-18T00:52:45.474Z,1.67
2022-11-18T00:55:17.390Z,1.62
2022-11-18T00:57:48.342Z,1.54
2022-11-18T01:00:19.371Z,1.56
2022-11-18T01:02:49.701Z,1.57
2022-11-18T01:05:21.354Z,1.49
2022-11-18T01:07:51.744Z,1.46
2022-11-18T01:10:22.134Z,1.52
2022-11-18T01:13:10.510Z,1.49
2022-11-18T01:15:42.705Z,1.46
2022-11-18T01:18:13.160Z,1.40
2022-11-18T01:20:43.992Z,1.40
2022-11-18T01:23:15.842Z,1.48
2022-11-18T01:25:48.401Z,1.36
2022-11-18T01:28:23.952Z,1.36
2022-11-18T01:30:53.071Z,1.36
2022-11-18T01:33:23.457Z,1.35
2022-11-18T01:35:53.785Z,1.22
2022-11-18T01:38:24.105Z,1.30
2022-11-18T01:40:55.336Z,1.28
2022-11-18T01:43:25.773Z,1.22
2022-11-18T01:45:56.193Z,1.24
2022-11-18T01:48:31.207Z,1.22
2022-11-18T01:51:13.119Z,1.16
2022-11-18T01:53:49.175Z,1.21
2022-11-18T01:56:25.116Z,1.23
2022-11-18T01:59:01.571Z,1.16
2022-11-18T02:01:32.583Z,1.18
2022-11-18T02:04:02.977Z,1.13
2022-11-18T02:06:35.056Z,1.16
2022-11-18T02:09:06.023Z,1.22
2022-11-18T02:11:54.156Z,1.16
2022-11-18T02:14:30.772Z,1.25
2022-11-18T02:17:27.036Z,1.20
2022-11-18T02:20:20.183Z,1.09
2022-11-18T02:23:23.092Z,1.06
2022-11-18T02:26:14.883Z,1.08
2022-11-18T02:29:05.075Z,1.13
2022-11-18T02:31:47.558Z,1.12
2022-11-18T02:34:23.925Z,1.16
2022-11-18T02:37:00.362Z,1.06
2022-11-18T02:39:36.557Z,1.02
2022-11-18T02:42:10.114Z,0.98
2022-11-18T02:44:45.017Z,0.94
2022-11-18T02:47:19.058Z,0.99
2022-11-18T02:49:55.066Z,0.88
2022-11-18T02:52:28.279Z,0.91
2022-11-18T02:55:00.959Z,0.94
2022-11-18T02:57:33.958Z,0.90
2022-11-18T03:00:05.916Z,1.00
2022-11-18T03:02:51.260Z,0.92
2022-11-18T03:05:32.230Z,0.84
2022-11-18T03:08:05.694Z,0.84
2022-11-18T03:10:39.302Z,0.76
2022-11-18T03:13:21.987Z,0.78
2022-11-18T03:15:58.215Z,0.72
2022-11-18T03:18:52.581Z,0.83
2022-11-18T03:21:28.758Z,0.95
2022-11-18T03:24:02.286Z,0.75
2022-11-18T03:26:38.797Z,0.76
2022-11-18T03:29:18.029Z,0.76
2022-11-18T03:31:56.627Z,0.70
2022-11-18T03:34:30.060Z,0.58
2022-11-18T03:37:07.634Z,0.59
2022-11-18T03:39:38.335Z,0.50
2022-11-18T03:42:20.868Z,0.47
2022-11-18T03:44:57.388Z,0.50
2022-11-18T03:47:33.125Z,0.42
2022-11-18T03:50:07.036Z,0.44
2022-11-18T03:52:39.800Z,0.40
2022-11-18T03:55:23.335Z,0.37
2022-11-18T03:58:13.147Z,0.42
2022-11-18T04:00:47.385Z,0.44
2022-11-18T04:03:21.051Z,0.48
2022-11-18T04:05:54.738Z,0.36
2022-11-18T04:08:29.880Z,0.42
2022-11-18T04:11:36.583Z,0.36
2022-11-18T04:14:09.187Z,0.34
2022-11-18T04:16:44.590Z,0.40
2022-11-18T04:19:19.082Z,0.34
2022-11-18T04:21:50.537Z,0.13
2022-11-18T04:24:22.423Z,0.22
2022-11-18T04:26:53.098Z,0.16
2022-11-18T04:29:25.069Z,0.14
2022-11-18T04:31:55.528Z,0.14
2022-11-18T04:34:26.218Z,0.24
2022-11-18T04:36:56.798Z,0.24
2022-11-18T04:39:27.389Z,0.17
2022-11-18T04:41:59.164Z,0.06
2022-11-18T04:44:32.995Z,0.06
2022-11-18T04:47:06.346Z,0.08
2022-11-18T04:49:38.987Z,0.16
2022-11-18T04:52:12.441Z,0.24
2022-11-18T04:54:44.097Z,0.16
2022-11-18T04:57:15.238Z,0.08
2022-11-18T04:59:45.791Z,0.14
2022-11-18T05:02:17.836Z,0.15
2022-11-18T05:04:48.267Z,0.10
2022-11-18T05:07:18.966Z,0.10
2022-11-18T05:09:49.928Z,0.10
2022-11-18T05:12:38.393Z,-0.01
2022-11-18T05:15:10.938Z,0.01
2022-11-18T05:17:41.699Z,0.01
2022-11-18T05:20:15.553Z,-0.10
2022-11-18T05:22:47.614Z,-0.15
2022-11-18T05:25:18.514Z,-0.11
2022-11-18T05:27:57.205Z,-0.06
2022-11-18T05:30:27.576Z,-0.04
2022-11-18T05:33:02.126Z,0.02
2022-11-18T05:35:32.480Z,-0.03
2022-11-18T05:38:08.451Z,0.06
2022-11-18T05:40:40.149Z,0.08
2022-11-18T05:43:12.072Z,0.08
2022-11-18T05:45:44.530Z,0.08
2022-11-18T05:48:15.221Z,0.15
2022-11-18T05:50:50.451Z,0.15
2022-11-18T05:53:25.149Z,0.14
2022-11-18T05:56:04.751Z,0.04
2022-11-18T05:58:35.615Z,0.12
2022-11-18T06:01:10.705Z,0.08
2022-11-18T06:03:42.685Z,0.00
2022-11-18T06:06:16.593Z,-0.06
2022-11-18T06:09:01.694Z,-0.08
2022-11-18T06:11:35.333Z,-0.12
2022-11-18T06:14:11.054Z,-0.09
2022-11-18T06:16:46.325Z,-0.05
2022-11-18T06:19:24.841Z,-0.15
2022-11-18T06:21:52.616Z,0.00
2022-11-18T06:24:28.530Z,0.00
2022-11-18T06:27:02.161Z,-0.04
2022-11-18T06:29:33.008Z,-0.14
2022-11-18T06:32:04.282Z,-0.20
2022-11-18T06:34:41.209Z,-0.16
2022-11-18T06:37:18.007Z,-0.14
2022-11-18T06:39:48.612Z,-0.06
2022-11-18T06:42:37.471Z,-0.15
2022-11-18T06:45:09.108Z,-0.06
2022-11-18T06:47:40.980Z,-0.06
2022-11-18T06:50:13.375Z,-0.21
2022-11-18T06:52:44.114Z,-0.18
2022-11-18T06:55:15.091Z,-0.08
2022-11-18T06:57:47.055Z,-0.08
2022-11-18T07:00:18.969Z,-0.12
2022-11-18T07:02:49.511Z,-0.10
2022-11-18T07:05:21.670Z,-0.02
2022-11-18T07:07:52.395Z,-0.02
2022-11-18T07:10:22.994Z,-0.03
2022-11-18T07:12:53.952Z,-0.08
2022-11-18T07:15:24.544Z,0.00
2022-11-18T07:17:55.911Z,-0.06
2022-11-18T07:20:26.544Z,-0.10
2022-11-18T07:22:58.023Z,-0.16
2022-11-18T07:25:28.627Z,-0.10
2022-11-18T07:28:00.229Z,-0.12
2022-11-18T07:30:32.202Z,-0.09
2022-11-18T07:33:04.243Z,-0.10
2022-11-18T07:35:34.801Z,0.02
2022-11-18T07:38:07.423Z,-0.04
2022-11-18T07:40:37.815Z,-0.21
2022-11-18T07:43:08.928Z,-0.24
2022-11-18T07:45:40.583Z,-0.10
2022-11-18T07:48:12.797Z,-0.12
2022-11-18T07:50:47.265Z,-0.24
2022-11-18T07:53:18.276Z,-0.16
2022-11-18T07:55:48.701Z,-0.15
2022-11-18T07:58:21.273Z,-0.07
2022-11-18T08:00:52.118Z,-0.14
2022-11-18T08:03:27.872Z,0.04
2022-11-18T08:06:03.140Z,-0.04
2022-11-18T08:08:36.435Z,-0.04
2022-11-18T08:11:09.933Z,-0.07
2022-11-18T08:13:42.851Z,0.00
2022-11-18T08:16:20.897Z,0.00
2022-11-18T08:18:53.449Z,-0.14
2022-11-18T08:21:25.305Z,-0.08
2022-11-18T08:23:57.798Z,0.00
2022-11-18T08:26:30.232Z,0.01
2022-11-18T08:29:02.932Z,-0.10
2022-11-18T08:31:34.321Z,-0.06
2022-11-18T08:34:08.016Z,-0.04
2022-11-18T08:36:39.633Z,0.12
2022-11-18T08:39:12.220Z,0.10
2022-11-18T08:41:46.299Z,-0.12
2022-11-18T08:44:19.733Z,-0.22
2022-11-18T08:46:50.732Z,-0.44
2022-11-18T08:49:25.112Z,-0.36
2022-11-18T08:51:56.397Z,-0.34
2022-11-18T08:54:28.785Z,-0.52
2022-11-18T08:56:59.524Z,-0.60
2022-11-18T08:59:30.073Z,-0.57
2022-11-18T09:02:08.079Z,-0.48
2022-11-18T09:04:38.789Z,-0.52
2022-11-18T09:07:12.376Z,-0.42
2022-11-18T09:09:52.091Z,-0.56
2022-11-18T09:12:23.947Z,-0.60
2022-11-18T09:15:12.889Z,-0.62
2022-11-18T09:17:26.505Z,-0.62
2022-11-18T09:19:57.016Z,-0.46
2022-11-18T09:22:28.991Z,-0.44
2022-11-18T09:24:59.555Z,-0.56
2022-11-18T09:27:30.697Z,-0.54
2022-11-18T09:30:02.217Z,-0.51
2022-11-18T09:32:34.778Z,-0.59
2022-11-18T09:35:05.859Z,-0.57
2022-11-18T09:37:36.624Z,-0.52
2022-11-18T09:40:10.362Z,-0.44
2022-11-18T09:43:01.014Z,-0.32
2022-11-18T09:45:37.513Z,-0.47
2022-11-18T09:48:16.905Z,-0.41
2022-11-18T09:50:50.049Z,-0.32
2022-11-18T09:53:25.353Z,-0.44
2022-11-18T09:55:57.693Z,-0.50
2022-11-18T09:58:36.484Z,-0.32
2022-11-18T10:01:15.855Z,-0.26
2022-11-18T10:03:47.746Z,-0.38
2022-11-18T10:06:34.227Z,-0.32
2022-11-18T10:09:25.997Z,-0.56
2022-11-18T10:12:29.266Z,-0.42
2022-11-18T10:15:18.935Z,-0.28
2022-11-18T10:18:09.383Z,-0.48
2022-11-18T10:20:46.675Z,-0.51
2022-11-18T10:23:23.064Z,-0.62
2022-11-18T10:25:55.870Z,-0.50
2022-11-18T10:28:32.019Z,-0.55
2022-11-18T10:31:11.397Z,-0.46
2022-11-18T10:33:43.623Z,-0.36
2022-11-18T10:36:28.629Z,-0.25
2022-11-18T10:39:16.676Z,-0.45
2022-11-18T10:41:50.653Z,-0.52
2022-11-18T10:44:33.148Z,-0.42
2022-11-18T10:47:26.820Z,-0.38
2022-11-18T10:50:01.035Z,-0.27
2022-11-18T10:52:32.804Z,-0.12
2022-11-18T10:55:11.072Z,-0.10
2022-11-18T10:57:43.962Z,-0.20
2022-11-18T11:00:36.137Z,-0.34
2022-11-18T11:03:27.990Z,-0.26
2022-11-18T11:06:32.080Z,-0.22
2022-11-18T11:09:06.768Z,-0.19
2022-11-18T11:11:41.991Z,-0.14
2022-11-18T11:14:26.566Z,-0.05
2022-11-18T11:17:00.524Z,0.14
2022-11-18T11:19:35.191Z,0.00
2022-11-18T11:22:10.188Z,-0.30
2022-11-18T11:24:43.979Z,-0.34
2022-11-18T11:30:20.325Z,-0.18
2022-11-18T11:33:10.159Z,-0.03
2022-11-18T11:36:02.755Z,0.10
2022-11-18T11:38:42.693Z,-0.04
2022-11-18T11:41:25.107Z,0.04
2022-11-18T11:44:15.251Z,-0.02
2022-11-18T11:47:24.017Z,-0.04
2022-11-18T11:50:04.255Z,0.10
2022-11-18T11:52:37.872Z,0.22
2022-11-18T11:55:22.584Z,0.31
2022-11-18T11:58:12.346Z,0.36
2022-11-18T12:00:47.095Z,0.32
2022-11-18T12:03:35.636Z,0.19
2022-11-18T12:06:08.076Z,0.25
2022-11-18T12:08:41.106Z,0.35
2022-11-18T12:11:21.328Z,0.37
2022-11-18T12:13:57.861Z,0.44
2022-11-18T12:16:43.380Z,0.58
2022-11-18T12:19:22.530Z,0.45
2022-11-18T12:22:01.069Z,0.44
2022-11-18T12:24:37.717Z,0.35
2022-11-18T12:27:22.090Z,0.81
2022-11-18T12:29:55.958Z,0.88
2022-11-18T12:32:48.963Z,0.63
2022-11-18T12:35:28.460Z,0.54
2022-11-18T12:38:03.464Z,0.58
2022-11-18T12:40:52.813Z,0.40
2022-11-18T12:43:47.789Z,0.24
2022-11-18T12:46:45.705Z,0.04
2022-11-18T12:49:28.116Z,0.05
2022-11-18T12:52:01.063Z,0.02
2022-11-18T12:54:37.193Z,-0.02
2022-11-18T12:57:22.400Z,0.04
2022-11-18T12:59:52.977Z,-0.09
2022-11-18T13:02:27.413Z,-0.10
2022-11-18T13:05:08.420Z,-0.02
2022-11-18T13:08:05.397Z,-0.07
2022-11-18T13:10:39.038Z,-0.10
2022-11-18T13:13:21.887Z,-0.12
2022-11-18T13:16:11.428Z,-0.06
2022-11-18T13:18:54.864Z,-0.06
2022-11-18T13:21:50.209Z,-0.10
2022-11-18T13:24:23.261Z,-0.04
2022-11-18T13:26:59.004Z,-0.13
2022-11-18T13:29:52.676Z,-0.18
2022-11-18T13:32:27.892Z,-0.18
2022-11-18T13:35:01.595Z,-0.24
2022-11-18T13:37:34.911Z,-0.20
2022-11-18T13:40:11.259Z,-0.18
2022-11-18T13:42:45.293Z,-0.25
2022-11-18T13:45:16.382Z,-0.28
2022-11-18T13:47:55.670Z,-0.16
2022-11-18T13:50:38.411Z,-0.21
2022-11-18T13:53:27.374Z,-0.08
2022-11-18T13:56:03.895Z,-0.08
2022-11-18T13:59:15.734Z,-0.08
2022-11-18T14:01:22.644Z,-0.06
2022-11-18T14:03:59.099Z,-0.05
2022-11-18T14:06:34.817Z,-0.06
2022-11-18T14:09:09.410Z,-0.09
2022-11-18T14:11:42.711Z,-0.08
2022-11-18T14:14:16.936Z,-0.03
2022-11-18T14:16:49.974Z,-0.09
2022-11-18T14:19:32.725Z,-0.08
2022-11-18T14:22:12.731Z,-0.10
2022-11-18T14:24:41.279Z,-0.09
2022-11-18T14:27:36.380Z,-0.10
2022-11-18T14:30:34.884Z,-0.05
2022-11-18T14:33:08.788Z,-0.08
2022-11-18T14:35:46.088Z,-0.12
2022-11-18T14:41:07.693Z,-0.17
2022-11-18T14:43:38.400Z,-0.22
2022-11-18T14:46:17.784Z,-0.21
2022-11-18T14:48:48.574Z,-0.28
2022-11-18T14:51:19.397Z,-0.30
2022-11-18T14:53:49.875Z,-0.30
2022-11-18T14:56:27.692Z,-0.31
2022-11-18T14:59:02.241Z,-0.33
2022-11-18T15:01:33.790Z,-0.36
2022-11-18T15:04:07.008Z,-0.34
2022-11-18T15:06:38.657Z,-0.36
2022-11-18T15:09:10.915Z,-0.44
2022-11-18T15:11:41.698Z,-0.39
2022-11-18T15:14:13.317Z,-0.46
2022-11-18T15:16:45.683Z,-0.46
2022-11-18T15:19:17.595Z,-0.48
2022-11-18T15:21:51.081Z,-0.51
2022-11-18T15:24:21.610Z,-0.48
2022-11-18T15:26:53.462Z,-0.66
2022-11-18T15:29:27.835Z,-0.54
2022-11-18T15:31:58.356Z,-0.55
2022-11-18T15:34:29.051Z,-0.55
2022-11-18T15:36:59.516Z,-0.57
2022-11-18T15:39:29.947Z,-0.60
2022-11-18T15:42:00.446Z,-0.56
2022-11-18T15:44:30.784Z,-0.59
2022-11-18T15:47:01.680Z,-0.62
2022-11-18T15:49:35.089Z,-0.66
2022-11-18T15:52:08.727Z,-0.66
2022-11-18T15:54:41.862Z,-0.62
2022-11-18T15:57:12.535Z,-0.68
2022-11-18T15:59:43.136Z,-0.69
2022-11-18T16:02:14.570Z,-0.66
2022-11-18T16:04:45.067Z,-0.70
2022-11-18T16:07:16.894Z,-0.75
2022-11-18T16:10:05.657Z,-0.78
2022-11-18T16:12:51.297Z,-0.70
2022-11-18T16:15:40.981Z,-0.76
2022-11-18T16:18:12.920Z,-0.86
2022-11-18T16:20:43.745Z,-0.84
2022-11-18T16:23:15.479Z,-0.82
2022-11-18T16:25:46.717Z,-0.83
2022-11-18T16:28:20.018Z,-0.93
2022-11-18T16:31:10.827Z,-0.89
2022-11-18T16:33:42.473Z,-0.90
2022-11-18T16:36:14.553Z,-0.86
2022-11-18T16:38:45.038Z,-0.83
2022-11-18T16:41:32.023Z,-0.78
2022-11-18T16:44:06.970Z,-0.86
2022-11-18T16:46:42.758Z,-0.98
2022-11-18T16:49:14.994Z,-0.85
2022-11-18T16:51:47.546Z,-0.90
2022-11-18T16:54:25.368Z,-0.86
2022-11-18T16:56:58.824Z,-0.80
2022-11-18T16:59:31.315Z,-0.68
2022-11-18T17:02:02.210Z,-0.81
2022-11-18T17:04:37.197Z,-0.80
2022-11-18T17:07:07.709Z,-0.86
2022-11-18T17:09:38.479Z,-0.92
2022-11-18T17:12:10.412Z,-0.94
2022-11-18T17:14:42.479Z,-0.90
2022-11-18T17:17:14.403Z,-0.92
2022-11-18T17:19:44.765Z,-0.88
2022-11-18T17:22:17.615Z,-0.86
2022-11-18T17:24:48.112Z,-0.82
2022-11-18T17:27:18.812Z,-0.83
2022-11-18T17:29:52.760Z,-0.82
2022-11-18T17:32:25.633Z,-0.92
2022-11-18T17:34:56.465Z,-0.96
2022-11-18T17:37:28.524Z,-0.99
2022-11-18T17:40:02.036Z,-0.96
2022-11-18T17:42:34.028Z,-1.16
2022-11-18T17:45:06.960Z,-1.22
2022-11-18T17:47:37.454Z,-1.39
2022-11-18T17:50:09.581Z,-1.17
2022-11-18T17:52:41.914Z,-1.07
2022-11-18T17:55:12.414Z,-1.26
2022-11-18T17:57:43.720Z,-1.34
2022-11-18T18:00:19.617Z,-1.22
2022-11-18T18:02:51.872Z,-1.16
2022-11-18T18:05:22.474Z,-1.24
2022-11-18T18:07:54.644Z,-1.03
2022-11-18T18:10:26.421Z,-1.09
2022-11-18T18:13:15.916Z,-0.95
2022-11-18T18:15:46.620Z,-1.00
2022-11-18T18:18:17.162Z,-1.09
2022-11-18T18:20:47.749Z,-1.04
2022-11-18T18:23:18.097Z,-1.18
2022-11-18T18:25:48.569Z,-1.00
2022-11-18T18:28:19.202Z,-1.04
2022-11-18T18:30:52.758Z,-1.00
2022-11-18T18:33:24.972Z,-1.09
2022-11-18T18:35:57.823Z,-1.04
2022-11-18T18:38:32.132Z,-1.06
2022-11-18T18:41:08.949Z,-1.09
2022-11-18T18:43:40.445Z,-1.00
2022-11-18T18:46:29.869Z,-1.04
2022-11-18T18:49:13.313Z,-1.14
2022-11-18T18:51:46.397Z,-1.26
2022-11-18T18:54:19.958Z,-1.42
2022-11-18T18:56:52.416Z,-1.57
2022-11-18T18:59:23.619Z,-1.68
2022-11-18T19:01:54.064Z,-1.56
2022-11-18T19:04:24.748Z,-1.60
2022-11-18T19:07:00.084Z,-1.46
2022-11-18T19:09:29.692Z,-1.62
2022-11-18T19:12:22.593Z,-1.58
2022-11-18T19:14:54.443Z,-1.68
2022-11-18T19:17:24.970Z,-1.74
2022-11-18T19:20:15.549Z,-1.79
2022-11-18T19:22:47.762Z,-1.80
2022-11-18T19:25:21.492Z,-1.75
2022-11-18T19:27:56.491Z,-1.75
2022-11-18T19:30:27.737Z,-1.70
2022-11-18T19:32:59.476Z,-1.60
2022-11-18T19:35:31.783Z,-1.66
2022-11-18T19:38:01.918Z,-1.62
2022-11-18T19:40:32.547Z,-1.70
2022-11-18T19:43:04.982Z,-1.66
2022-11-18T19:45:37.082Z,-1.66
2022-11-18T19:48:12.860Z,-1.76
2022-11-18T19:50:47.850Z,-1.64
2022-11-18T19:53:34.903Z,-1.66
2022-11-18T19:56:10.429Z,-1.44
2022-11-18T19:58:45.534Z,-1.61
2022-11-18T20:01:20.552Z,-1.72
2022-11-18T20:03:53.467Z,-1.71
2022-11-18T20:06:24.915Z,-1.79
2022-11-18T20:09:00.284Z,-1.81
2022-11-18T20:11:33.878Z,-1.76
2022-11-18T20:14:08.704Z,-1.69
2022-11-18T20:16:44.702Z,-1.68
2022-11-18T20:19:19.184Z,-1.74
2022-11-18T20:21:54.327Z,-1.83
2022-11-18T20:24:25.288Z,-1.66
2022-11-18T20:26:57.760Z,-1.90
2022-11-18T20:29:30.440Z,-1.84
2022-11-18T20:32:03.055Z,-1.68
2022-11-18T20:34:39.605Z,-1.82
2022-11-18T20:37:09.901Z,-1.81
2022-11-18T20:39:40.764Z,-1.87
2022-11-18T20:42:28.972Z,-1.97
2022-11-18T20:45:00.050Z,-2.02
2022-11-18T20:47:30.569Z,-1.94
2022-11-18T20:50:01.176Z,-2.08
2022-11-18T20:52:35.009Z,-1.88
2022-11-18T20:55:11.183Z,-1.94
2022-11-18T20:57:39.907Z,-1.94
2022-11-18T21:00:11.920Z,-2.07
2022-11-18T21:02:43.862Z,-2.04
2022-11-18T21:05:15.845Z,-2.13
2022-11-18T21:07:50.321Z,-2.02
2022-11-18T21:10:23.133Z,-1.84
2022-11-18T21:13:11.588Z,-1.78
2022-11-18T21:15:44.238Z,-1.95
2022-11-18T21:18:17.764Z,-1.90
2022-11-18T21:21:06.862Z,-2.02
2022-11-18T21:23:37.292Z,-2.06
2022-11-18T21:26:13.255Z,-2.06
2022-11-18T21:28:42.431Z,-2.16
2022-11-18T21:31:16.312Z,-2.12
2022-11-18T21:33:47.937Z,-2.14
2022-11-18T21:36:21.431Z,-2.06
2022-11-18T21:38:52.538Z,-2.04
2022-11-18T21:41:25.595Z,-2.10
2022-11-18T21:44:05.627Z,-2.17
2022-11-18T21:46:32.501Z,-2.16
2022-11-18T21:49:05.621Z,-2.08
2022-11-18T21:51:38.452Z,-2.20
2022-11-18T21:54:12.050Z,-2.36
2022-11-18T21:56:42.560Z,-2.28
2022-11-18T21:59:16.608Z,-2.32
2022-11-18T22:01:48.672Z,-2.46
2022-11-18T22:04:36.959Z,-2.54
2022-11-18T22:07:08.613Z,-2.52
2022-11-18T22:09:39.148Z,-2.53
2022-11-18T22:12:10.841Z,-2.52
2022-11-18T22:14:43.833Z,-2.62
2022-11-18T22:17:14.289Z,-2.72
2022-11-18T22:19:45.300Z,-2.55
2022-11-18T22:22:20.304Z,-2.48
2022-11-18T22:24:52.745Z,-2.05
2022-11-18T22:27:29.460Z,-2.30
2022-11-18T22:29:58.303Z,-2.36
2022-11-18T22:32:29.809Z,-2.44
2022-11-18T22:35:02.827Z,-2.38
2022-11-18T22:37:35.613Z,-2.48
2022-11-18T22:40:07.276Z,-2.58
2022-11-18T22:42:52.574Z,-2.60
2022-11-18T22:45:26.692Z,-2.58
2022-11-18T22:47:57.706Z,-2.54
2022-11-18T22:50:30.407Z,-2.68
2022-11-18T22:53:00.964Z,-2.70
2022-11-18T22:55:34.674Z,-2.69
2022-11-18T22:58:06.767Z,-2.64
2022-11-18T23:00:40.034Z,-2.80
2022-11-18T23:03:11.396Z,-2.74
2022-11-18T23:05:44.433Z,-2.85
2022-11-18T23:08:17.279Z,-2.82
2022-11-18T23:10:50.648Z,-2.77
2022-11-18T23:13:39.346Z,-2.74
2022-11-18T23:16:11.509Z,-2.81
2022-11-18T23:18:44.871Z,-2.76
2022-11-18T23:21:16.838Z,-2.70
2022-11-18T23:23:48.623Z,-2.74
2022-11-18T23:26:19.259Z,-2.85
2022-11-18T23:28:49.917Z,-2.76
2022-11-18T23:31:26.718Z,-2.93
2022-11-18T23:33:59.548Z,-2.91
2022-11-18T23:36:30.008Z,-2.94
2022-11-18T23:39:01.974Z,-2.80
2022-11-18T23:41:34.177Z,-2.94
2022-11-18T23:44:07.662Z,-2.98
2022-11-18T23:46:39.212Z,-3.08
2022-11-18T23:49:10.658Z,-3.09
2022-11-18T23:51:41.445Z,-3.13
2022-11-18T23:54:13.379Z,-2.96
2022-11-18T23:56:43.761Z,-3.00
2022-11-18T23:59:14.331Z,-3.08
